createdAt,value
2023-06-02T00:01:37.541Z,8.83
2023-06-02T00:04:04.890Z,6.73
2023-06-02T00:06:34.438Z,7.63
2023-06-02T00:09:05.190Z,9.93
2023-06-02T00:11:35.661Z,7.13
2023-06-02T00:14:04.852Z,9.43
2023-06-02T00:16:43.032Z,12.30
2023-06-02T00:19:13.430Z,11.93
2023-06-02T00:21:41.967Z,10.63
2023-06-02T00:24:09.080Z,9.70
2023-06-02T00:26:36.148Z,6.83
2023-06-02T00:29:03.521Z,9.33
2023-06-02T00:31:30.825Z,9.07
2023-06-02T00:33:59.364Z,9.43
2023-06-02T00:36:26.394Z,9.23
2023-06-02T00:38:53.388Z,11.60
2023-06-02T00:41:20.565Z,9.23
2023-06-02T00:43:47.590Z,8.87
2023-06-02T00:46:14.565Z,8.27
2023-06-02T00:48:41.642Z,9.27
2023-06-02T00:51:10.974Z,9.50
2023-06-02T00:53:38.988Z,14.10
2023-06-02T00:56:07.047Z,8.27
2023-06-02T00:58:38.332Z,9.27
2023-06-02T01:01:09.477Z,9.30
2023-06-02T01:03:38.137Z,11.13
2023-06-02T01:06:08.784Z,8.37
2023-06-02T01:08:40.177Z,9.10
2023-06-02T01:11:08.315Z,12.67
2023-06-02T01:13:36.409Z,8.20
2023-06-02T01:16:03.747Z,7.77
2023-06-02T01:18:36.347Z,9.30
2023-06-02T01:21:06.530Z,11.10
2023-06-02T01:23:36.626Z,11.43
2023-06-02T01:26:10.097Z,13.30
2023-06-02T01:28:37.600Z,8.30
2023-06-02T01:31:14.649Z,8.90
2023-06-02T01:33:48.194Z,11.00
2023-06-02T01:36:18.266Z,14.70
2023-06-02T01:38:49.554Z,9.63
2023-06-02T01:41:21.302Z,10.37
2023-06-02T01:43:49.834Z,10.67
2023-06-02T01:46:17.656Z,9.73
2023-06-02T01:48:44.673Z,15.10
2023-06-02T01:51:11.626Z,11.37
2023-06-02T01:53:38.571Z,9.63
2023-06-02T01:56:06.676Z,13.33
2023-06-02T01:58:35.249Z,7.80
2023-06-02T02:01:02.275Z,12.43
2023-06-02T02:03:30.606Z,8.77
2023-06-02T02:05:57.950Z,11.33
2023-06-02T02:08:24.987Z,7.97
2023-06-02T02:10:52.123Z,7.77
2023-06-02T02:13:19.076Z,9.40
2023-06-02T02:15:47.421Z,13.23
2023-06-02T02:18:16.620Z,21.73
2023-06-02T02:20:43.569Z,14.70
2023-06-02T02:23:10.544Z,10.37
2023-06-02T02:25:37.478Z,13.70
2023-06-02T02:28:04.564Z,10.60
2023-06-02T02:30:31.594Z,8.90
2023-06-02T02:33:03.135Z,11.63
2023-06-02T02:35:30.095Z,13.67
2023-06-02T02:37:57.049Z,10.90
2023-06-02T02:40:24.225Z,9.40
2023-06-02T02:42:51.144Z,13.80
2023-06-02T02:45:18.240Z,10.77
2023-06-02T02:47:45.573Z,10.60
2023-06-02T02:50:13.810Z,17.83
2023-06-02T02:52:40.715Z,16.50
2023-06-02T02:55:08.525Z,12.43
2023-06-02T02:57:35.425Z,7.30
2023-06-02T03:00:03.016Z,9.27
2023-06-02T03:02:29.991Z,17.57
2023-06-02T03:04:57.618Z,15.47
2023-06-02T03:07:25.902Z,12.23
2023-06-02T03:09:53.163Z,13.07
2023-06-02T03:12:20.285Z,14.10
2023-06-02T03:14:47.187Z,11.00
2023-06-02T03:17:14.710Z,12.63
2023-06-02T03:19:41.805Z,13.30
2023-06-02T03:22:09.093Z,18.90
2023-06-02T03:24:37.421Z,14.37
2023-06-02T03:27:04.840Z,13.37
2023-06-02T03:29:31.821Z,10.20
2023-06-02T03:31:59.980Z,13.07
2023-06-02T03:34:27.031Z,12.77
2023-06-02T03:36:54.014Z,13.03
2023-06-02T03:39:20.972Z,16.13
2023-06-02T03:41:49.219Z,14.90
2023-06-02T03:44:16.212Z,16.17
2023-06-02T03:46:43.210Z,8.63
2023-06-02T03:49:10.175Z,11.47
2023-06-02T03:51:37.825Z,10.47
2023-06-02T03:54:04.943Z,14.60
2023-06-02T03:56:31.912Z,13.37
2023-06-02T03:59:00.288Z,11.70
2023-06-02T04:01:27.402Z,12.47
2023-06-02T04:03:54.713Z,13.23
2023-06-02T04:06:22.297Z,15.63
2023-06-02T04:08:49.247Z,13.93
2023-06-02T04:11:16.406Z,12.83
2023-06-02T04:13:43.343Z,14.90
2023-06-02T04:16:11.616Z,9.73
2023-06-02T04:18:40.190Z,10.67
2023-06-02T04:21:07.414Z,14.27
2023-06-02T04:23:34.366Z,10.67
2023-06-02T04:26:01.760Z,18.40
2023-06-02T04:28:30.073Z,17.83
2023-06-02T04:31:00.440Z,14.23
2023-06-02T04:33:29.274Z,12.97
2023-06-02T04:35:57.263Z,10.67
2023-06-02T04:38:24.489Z,14.53
2023-06-02T04:40:52.145Z,23.00
2023-06-02T04:43:19.911Z,16.80
2023-06-02T04:45:48.171Z,16.53
2023-06-02T04:48:15.333Z,18.80
2023-06-02T04:50:43.661Z,11.87
2023-06-02T04:53:10.668Z,16.17
2023-06-02T04:55:37.662Z,14.47
2023-06-02T04:58:05.391Z,15.67
2023-06-02T05:00:32.354Z,11.90
2023-06-02T05:02:59.348Z,13.60
2023-06-02T05:05:26.431Z,13.23
2023-06-02T05:07:54.831Z,12.77
2023-06-02T05:10:21.784Z,12.57
2023-06-02T05:12:49.135Z,13.87
2023-06-02T05:15:17.595Z,18.03
2023-06-02T05:17:44.891Z,15.67
2023-06-02T05:20:12.640Z,18.13
2023-06-02T05:22:40.083Z,13.17
2023-06-02T05:25:11.546Z,15.17
2023-06-02T05:27:39.131Z,12.73
2023-06-02T05:30:08.172Z,17.30
2023-06-02T05:32:35.315Z,10.13
2023-06-02T05:35:02.374Z,14.50
2023-06-02T05:37:29.356Z,15.90
2023-06-02T05:39:56.304Z,22.67
2023-06-02T05:42:26.225Z,17.37
2023-06-02T05:44:53.229Z,15.67
2023-06-02T05:47:20.318Z,15.97
2023-06-02T05:49:47.518Z,22.47
2023-06-02T05:52:14.550Z,16.67
2023-06-02T05:54:41.527Z,19.70
2023-06-02T05:57:08.537Z,17.37
2023-06-02T05:59:36.818Z,14.30
2023-06-02T06:02:04.223Z,25.23
2023-06-02T06:04:31.277Z,14.13
2023-06-02T06:06:59.717Z,11.50
2023-06-02T06:09:26.626Z,17.97
2023-06-02T06:11:53.701Z,12.90
2023-06-02T06:14:20.890Z,15.87
2023-06-02T06:16:49.189Z,19.60
2023-06-02T06:19:16.359Z,14.97
2023-06-02T06:21:43.351Z,18.33
2023-06-02T06:24:10.414Z,14.10
2023-06-02T06:26:37.466Z,19.03
2023-06-02T06:29:04.806Z,14.60
2023-06-02T06:31:33.453Z,15.93
2023-06-02T06:34:01.970Z,13.77
2023-06-02T06:36:29.051Z,14.23
2023-06-02T06:38:56.642Z,13.43
2023-06-02T06:41:24.012Z,11.70
2023-06-02T06:43:51.073Z,17.80
2023-06-02T06:46:18.039Z,13.57
2023-06-02T06:48:45.272Z,15.73
2023-06-02T06:51:13.720Z,15.13
2023-06-02T06:53:40.675Z,11.30
2023-06-02T06:56:08.525Z,12.20
2023-06-02T06:58:35.480Z,12.00
2023-06-02T07:01:03.108Z,15.10
2023-06-02T07:03:30.878Z,11.97
2023-06-02T07:05:58.146Z,11.07
2023-06-02T07:08:26.652Z,10.03
2023-06-02T07:10:53.622Z,10.67
2023-06-02T07:13:20.707Z,10.63
2023-06-02T07:15:47.892Z,10.83
2023-06-02T07:18:14.909Z,8.33
2023-06-02T07:20:41.829Z,8.93
2023-06-02T07:23:08.897Z,7.83
2023-06-02T07:25:37.849Z,8.47
2023-06-02T07:28:05.372Z,9.37
2023-06-02T07:30:36.124Z,11.00
2023-06-02T07:33:03.597Z,8.83
2023-06-02T07:35:30.750Z,7.07
2023-06-02T07:37:57.675Z,19.73
2023-06-02T07:40:24.921Z,11.77
2023-06-02T07:42:53.152Z,7.33
2023-06-02T07:45:20.110Z,5.57
2023-06-02T07:47:47.947Z,8.47
2023-06-02T07:50:15.366Z,9.97
2023-06-02T07:52:42.782Z,9.23
2023-06-02T07:55:10.249Z,8.27
2023-06-02T07:57:37.360Z,8.60
2023-06-02T08:00:18.959Z,6.30
2023-06-02T08:02:50.470Z,9.80
2023-06-02T08:05:18.681Z,7.80
2023-06-02T08:07:46.655Z,9.17
2023-06-02T08:10:13.767Z,9.43
2023-06-02T08:12:40.857Z,4.07
2023-06-02T08:15:09.348Z,4.73
2023-06-02T08:17:37.838Z,9.43
2023-06-02T08:20:07.777Z,8.07
2023-06-02T08:22:35.203Z,9.17
2023-06-02T08:25:04.001Z,6.00
2023-06-02T08:27:31.188Z,4.50
2023-06-02T08:29:58.549Z,4.53
2023-06-02T08:32:27.161Z,5.17
2023-06-02T08:35:02.389Z,4.63
2023-06-02T08:37:32.964Z,9.37
2023-06-02T08:40:00.412Z,3.50
2023-06-02T08:42:27.994Z,8.10
2023-06-02T08:44:55.091Z,4.30
2023-06-02T08:47:30.054Z,6.40
2023-06-02T08:50:03.133Z,7.33
2023-06-02T08:52:35.448Z,6.17
2023-06-02T08:55:04.940Z,5.93
2023-06-02T08:57:31.992Z,4.83
2023-06-02T08:59:59.121Z,5.63
2023-06-02T09:02:26.227Z,4.97
2023-06-02T09:04:53.337Z,5.90
2023-06-02T09:07:22.183Z,5.10
2023-06-02T09:09:52.109Z,7.03
2023-06-02T09:12:20.205Z,6.97
2023-06-02T09:14:49.075Z,4.60
2023-06-02T09:17:28.055Z,5.67
2023-06-02T09:19:58.799Z,6.20
2023-06-02T09:22:27.187Z,3.37
2023-06-02T09:24:55.337Z,4.43
2023-06-02T09:27:22.477Z,7.23
2023-06-02T09:29:50.750Z,4.10
2023-06-02T09:32:19.915Z,4.10
2023-06-02T09:34:47.083Z,3.80
2023-06-02T09:37:16.873Z,10.07
2023-06-02T09:39:47.400Z,5.00
2023-06-02T09:42:16.065Z,5.10
2023-06-02T09:45:04.644Z,4.53
2023-06-02T09:47:39.537Z,9.57
2023-06-02T09:50:08.291Z,3.37
2023-06-02T09:52:38.078Z,6.60
2023-06-02T09:55:09.182Z,8.20
2023-06-02T09:57:37.564Z,4.87
2023-06-02T10:00:07.979Z,9.13
2023-06-02T10:02:36.420Z,6.70
2023-06-02T10:05:05.605Z,4.63
2023-06-02T10:07:53.117Z,4.13
2023-06-02T10:10:39.284Z,5.60
2023-06-02T10:13:34.436Z,6.87
2023-06-02T10:16:25.055Z,7.27
2023-06-02T10:19:28.893Z,7.37
2023-06-02T10:22:13.024Z,3.77
2023-06-02T10:24:56.047Z,4.23
2023-06-02T10:27:31.285Z,6.73
2023-06-02T10:29:59.330Z,5.73
2023-06-02T10:32:30.007Z,5.27
2023-06-02T10:34:58.678Z,4.83
2023-06-02T10:37:25.904Z,4.57
2023-06-02T10:39:55.142Z,5.30
2023-06-02T10:42:25.035Z,6.00
2023-06-02T10:45:33.039Z,4.33
2023-06-02T10:47:59.992Z,4.73
2023-06-02T10:50:54.715Z,5.70
2023-06-02T10:53:21.709Z,5.83
2023-06-02T10:55:49.597Z,6.07
2023-06-02T10:58:16.795Z,4.70
2023-06-02T11:00:48.126Z,8.40
2023-06-02T11:03:34.526Z,5.27
2023-06-02T11:06:21.479Z,4.90
2023-06-02T11:08:53.198Z,6.87
2023-06-02T11:11:54.113Z,5.20
2023-06-02T11:14:22.190Z,7.80
2023-06-02T11:17:31.418Z,11.33
2023-06-02T11:19:59.077Z,6.73
2023-06-02T11:22:26.933Z,6.80
2023-06-02T11:24:54.538Z,4.67
2023-06-02T11:27:37.615Z,5.13
2023-06-02T11:30:11.457Z,6.47
2023-06-02T11:32:39.998Z,7.20
2023-06-02T11:35:10.366Z,6.40
2023-06-02T11:37:41.351Z,6.10
2023-06-02T11:40:14.446Z,7.20
2023-06-02T11:42:43.990Z,6.90
2023-06-02T11:45:23.115Z,6.17
2023-06-02T11:48:00.185Z,7.87
2023-06-02T11:50:27.476Z,6.27
2023-06-02T11:52:54.742Z,7.50
2023-06-02T11:55:26.828Z,6.33
2023-06-02T11:57:53.936Z,5.97
2023-06-02T12:00:21.566Z,7.10
2023-06-02T12:02:52.890Z,8.07
2023-06-02T12:05:32.684Z,4.77
2023-06-02T12:08:09.453Z,4.17
2023-06-02T12:10:37.264Z,12.17
2023-06-02T12:13:04.235Z,4.37
2023-06-02T12:15:37.243Z,8.40
2023-06-02T12:18:06.183Z,8.67
2023-06-02T12:20:42.545Z,8.97
2023-06-02T12:23:11.299Z,5.37
2023-06-02T12:25:39.207Z,5.03
2023-06-02T12:28:12.342Z,4.30
2023-06-02T12:30:40.356Z,4.07
2023-06-02T12:33:09.853Z,5.17
2023-06-02T12:35:37.887Z,8.63
2023-06-02T12:38:07.761Z,5.57
2023-06-02T12:40:35.578Z,5.47
2023-06-02T12:43:02.623Z,7.03
2023-06-02T12:45:29.845Z,4.50
2023-06-02T12:47:57.261Z,6.93
2023-06-02T12:50:27.318Z,5.37
2023-06-02T12:52:54.400Z,4.93
2023-06-02T12:55:22.871Z,6.47
2023-06-02T12:57:51.372Z,3.53
2023-06-02T13:00:18.910Z,6.10
2023-06-02T13:02:46.149Z,5.40
2023-06-02T13:05:13.636Z,3.30
2023-06-02T13:07:42.250Z,3.50
2023-06-02T13:10:11.971Z,3.90
2023-06-02T13:12:41.074Z,3.47
2023-06-02T13:15:09.501Z,4.60
2023-06-02T13:17:36.759Z,7.33
2023-06-02T13:20:04.452Z,6.47
2023-06-02T13:22:31.727Z,2.93
2023-06-02T13:24:59.708Z,3.63
2023-06-02T13:27:38.307Z,3.87
2023-06-02T13:30:14.218Z,3.33
2023-06-02T13:32:41.240Z,3.83
2023-06-02T13:35:09.980Z,6.20
2023-06-02T13:37:38.059Z,3.63
2023-06-02T13:40:07.366Z,2.83
2023-06-02T13:42:34.530Z,7.23
2023-06-02T13:45:01.467Z,4.57
2023-06-02T13:47:29.916Z,4.43
2023-06-02T13:49:56.902Z,4.10
2023-06-02T13:52:23.935Z,4.63
2023-06-02T13:54:50.974Z,4.73
2023-06-02T13:57:18.029Z,4.00
2023-06-02T13:59:45.122Z,4.27
2023-06-02T14:02:12.296Z,2.87
2023-06-02T14:04:42.802Z,2.70
2023-06-02T14:07:11.716Z,3.57
2023-06-02T14:09:38.866Z,4.63
2023-06-02T14:12:07.134Z,3.93
2023-06-02T14:14:34.213Z,4.40
2023-06-02T14:17:01.325Z,3.27
2023-06-02T14:19:28.344Z,4.53
2023-06-02T14:21:57.031Z,6.33
2023-06-02T14:24:24.136Z,5.77
2023-06-02T14:26:51.562Z,4.63
2023-06-02T14:29:18.614Z,2.93
2023-06-02T14:31:45.707Z,5.47
2023-06-02T14:34:12.827Z,3.67
2023-06-02T14:36:39.997Z,5.63
2023-06-02T14:39:08.378Z,3.40
2023-06-02T14:41:35.450Z,4.40
2023-06-02T14:44:03.481Z,4.43
2023-06-02T14:46:30.854Z,6.07
2023-06-02T14:48:58.065Z,5.37
2023-06-02T14:51:25.076Z,5.43
2023-06-02T14:53:52.359Z,4.93
2023-06-02T14:56:21.622Z,6.00
2023-06-02T14:58:53.619Z,3.23
2023-06-02T15:01:26.511Z,3.83
2023-06-02T15:03:53.644Z,6.07
2023-06-02T15:06:39.143Z,4.60
2023-06-02T15:09:06.341Z,3.80
2023-06-02T15:11:35.693Z,3.37
2023-06-02T15:14:02.709Z,4.90
2023-06-02T15:16:29.724Z,3.47
2023-06-02T15:18:58.664Z,6.57
2023-06-02T15:21:26.256Z,4.73
2023-06-02T15:23:53.853Z,3.63
2023-06-02T15:26:22.058Z,2.73
2023-06-02T15:28:50.392Z,3.03
2023-06-02T15:31:17.556Z,3.63
2023-06-02T15:33:46.159Z,3.60
2023-06-02T15:36:14.050Z,5.13
2023-06-02T15:38:41.278Z,3.27
2023-06-02T15:41:08.268Z,3.60
2023-06-02T15:43:35.207Z,3.17
2023-06-02T15:46:04.237Z,5.27
2023-06-02T15:48:31.484Z,3.20
2023-06-02T15:50:58.636Z,2.97
2023-06-02T15:53:25.666Z,4.13
2023-06-02T15:55:52.605Z,7.13
2023-06-02T15:58:19.678Z,9.37
2023-06-02T16:00:46.711Z,3.27
2023-06-02T16:03:15.108Z,2.10
2023-06-02T16:05:42.466Z,2.80
2023-06-02T16:08:09.390Z,3.20
2023-06-02T16:10:36.410Z,4.53
2023-06-02T16:13:03.497Z,5.13
2023-06-02T16:15:31.573Z,5.70
2023-06-02T16:18:02.035Z,3.27
2023-06-02T16:20:31.693Z,2.07
2023-06-02T16:22:58.749Z,2.63
2023-06-02T16:25:25.833Z,5.60
2023-06-02T16:27:53.034Z,2.40
2023-06-02T16:30:21.598Z,4.13
2023-06-02T16:32:50.906Z,2.53
2023-06-02T16:35:18.044Z,4.43
2023-06-02T16:37:46.890Z,4.20
2023-06-02T16:40:13.979Z,2.93
2023-06-02T16:42:44.995Z,4.23
2023-06-02T16:45:13.486Z,3.67
2023-06-02T16:47:40.531Z,3.63
2023-06-02T16:50:08.558Z,2.33
2023-06-02T16:52:35.550Z,2.47
2023-06-02T16:55:04.701Z,2.00
2023-06-02T16:57:31.607Z,2.57
2023-06-02T16:59:58.519Z,4.03
2023-06-02T17:02:25.662Z,3.77
2023-06-02T17:04:52.594Z,2.83
2023-06-02T17:07:19.578Z,2.83
2023-06-02T17:09:46.490Z,2.47
2023-06-02T17:12:14.841Z,4.30
2023-06-02T17:14:42.795Z,2.40
2023-06-02T17:17:10.514Z,2.90
2023-06-02T17:19:37.978Z,2.77
2023-06-02T17:22:07.256Z,1.70
2023-06-02T17:24:34.353Z,3.03
2023-06-02T17:27:02.062Z,3.10
2023-06-02T17:29:30.385Z,1.93
2023-06-02T17:31:57.537Z,2.20
2023-06-02T17:34:25.145Z,2.07
2023-06-02T17:36:54.732Z,3.87
2023-06-02T17:39:21.881Z,2.73
2023-06-02T17:41:48.993Z,3.50
2023-06-02T17:44:16.065Z,2.23
2023-06-02T17:46:44.371Z,4.30
2023-06-02T17:49:12.442Z,3.87
2023-06-02T17:51:39.456Z,4.70
2023-06-02T17:54:06.550Z,1.43
2023-06-02T17:56:33.466Z,3.83
2023-06-02T17:59:01.569Z,3.20
2023-06-02T18:01:28.663Z,2.17
2023-06-02T18:03:57.315Z,2.47
2023-06-02T18:06:24.318Z,2.50
2023-06-02T18:08:51.375Z,1.77
2023-06-02T18:11:18.306Z,1.47
2023-06-02T18:13:45.683Z,4.17
2023-06-02T18:16:13.497Z,1.63
2023-06-02T18:18:40.477Z,3.20
2023-06-02T18:21:08.814Z,1.40
2023-06-02T18:23:35.891Z,2.87
2023-06-02T18:26:02.956Z,1.80
2023-06-02T18:28:29.910Z,4.03
2023-06-02T18:30:56.908Z,4.93
2023-06-02T18:33:23.865Z,8.00
2023-06-02T18:35:51.091Z,2.87
2023-06-02T18:38:19.440Z,2.63
2023-06-02T18:40:46.672Z,1.70
2023-06-02T18:43:13.658Z,2.90
2023-06-02T18:45:40.621Z,2.13
2023-06-02T18:48:09.060Z,4.77
2023-06-02T18:50:36.212Z,3.00
2023-06-02T18:53:03.172Z,2.20
2023-06-02T18:55:31.450Z,2.43
2023-06-02T18:57:58.460Z,6.43
2023-06-02T19:00:25.450Z,2.03
2023-06-02T19:02:52.512Z,2.07
2023-06-02T19:05:19.615Z,1.73
2023-06-02T19:07:46.562Z,1.40
2023-06-02T19:10:13.513Z,4.70
2023-06-02T19:12:42.257Z,1.30
2023-06-02T19:15:09.630Z,3.00
2023-06-02T19:17:36.943Z,2.67
2023-06-02T19:20:07.190Z,1.37
2023-06-02T19:22:38.612Z,2.70
2023-06-02T19:25:07.532Z,1.50
2023-06-02T19:27:35.042Z,1.00
2023-06-02T19:30:04.046Z,2.60
2023-06-02T19:32:31.325Z,1.47
2023-06-02T19:34:58.344Z,2.53
2023-06-02T19:37:25.365Z,3.60
2023-06-02T19:39:52.293Z,1.33
2023-06-02T19:42:19.289Z,2.23
2023-06-02T19:44:48.449Z,2.37
2023-06-02T19:47:16.902Z,2.07
2023-06-02T19:49:44.100Z,1.77
2023-06-02T19:52:11.084Z,0.97
2023-06-02T19:54:38.288Z,2.40
2023-06-02T19:57:06.625Z,1.53
2023-06-02T19:59:34.954Z,1.27
2023-06-02T20:02:01.962Z,1.77
2023-06-02T20:04:30.407Z,4.00
2023-06-02T20:07:00.338Z,2.50
2023-06-02T20:09:27.405Z,1.03
2023-06-02T20:11:56.343Z,1.00
2023-06-02T20:14:23.493Z,2.17
2023-06-02T20:16:50.671Z,2.47
2023-06-02T20:19:18.110Z,2.53
2023-06-02T20:21:46.418Z,0.90
2023-06-02T20:24:13.340Z,1.40
2023-06-02T20:26:41.208Z,1.10
2023-06-02T20:29:08.257Z,0.90
2023-06-02T20:31:35.416Z,1.43
2023-06-02T20:34:02.924Z,1.93
2023-06-02T20:36:30.016Z,0.93
2023-06-02T20:38:58.596Z,1.00
2023-06-02T20:41:25.942Z,1.50
2023-06-02T20:43:52.944Z,1.20
2023-06-02T20:46:20.003Z,1.10
2023-06-02T20:48:46.959Z,1.03
2023-06-02T20:51:13.936Z,1.20
2023-06-02T20:53:40.994Z,2.23
2023-06-02T20:56:09.323Z,1.53
2023-06-02T20:58:36.380Z,1.13
2023-06-02T21:01:03.831Z,5.80
2023-06-02T21:03:30.977Z,1.60
2023-06-02T21:05:57.983Z,1.20
2023-06-02T21:08:24.959Z,1.83
2023-06-02T21:10:51.875Z,1.40
2023-06-02T21:13:20.167Z,1.80
2023-06-02T21:15:47.112Z,5.13
2023-06-02T21:18:14.185Z,1.33
2023-06-02T21:20:41.127Z,1.30
2023-06-02T21:23:08.150Z,2.17
2023-06-02T21:25:35.098Z,1.30
2023-06-02T21:28:02.001Z,1.50
2023-06-02T21:30:30.703Z,2.90
2023-06-02T21:32:57.800Z,2.97
2023-06-02T21:35:24.753Z,1.03
2023-06-02T21:37:51.766Z,1.23
2023-06-02T21:40:18.686Z,1.10
2023-06-02T21:42:46.014Z,1.73
2023-06-02T21:45:13.353Z,1.03
2023-06-02T21:47:41.976Z,2.67
2023-06-02T21:50:10.381Z,3.20
2023-06-02T21:52:37.398Z,1.33
2023-06-02T21:55:05.433Z,1.80
2023-06-02T21:57:32.511Z,1.30
2023-06-02T21:59:59.682Z,1.27
2023-06-02T22:02:28.558Z,2.13
2023-06-02T22:04:56.985Z,2.10
2023-06-02T22:07:23.894Z,1.03
2023-06-02T22:09:51.582Z,1.50
2023-06-02T22:12:18.539Z,1.37
2023-06-02T22:14:45.450Z,1.70
2023-06-02T22:17:12.392Z,1.17
2023-06-02T22:19:39.339Z,1.77
2023-06-02T22:22:08.114Z,0.80
2023-06-02T22:24:37.418Z,1.20
2023-06-02T22:27:05.048Z,1.63
2023-06-02T22:29:31.962Z,1.53
2023-06-02T22:31:58.952Z,3.20
2023-06-02T22:34:26.103Z,4.30
2023-06-02T22:36:53.141Z,1.40
2023-06-02T22:39:21.455Z,1.50
2023-06-02T22:41:49.770Z,1.10
2023-06-02T22:44:16.792Z,2.17
2023-06-02T22:46:43.754Z,2.50
2023-06-02T22:49:11.105Z,2.63
2023-06-02T22:51:39.396Z,1.30
2023-06-02T22:54:06.378Z,0.97
2023-06-02T22:56:34.628Z,1.53
2023-06-02T22:59:01.855Z,5.33
2023-06-02T23:01:29.330Z,2.80
2023-06-02T23:03:56.365Z,1.43
2023-06-02T23:06:23.891Z,1.60
2023-06-02T23:08:50.874Z,1.50
2023-06-02T23:11:18.498Z,1.70
2023-06-02T23:13:46.813Z,1.20
2023-06-02T23:16:13.826Z,2.00
2023-06-02T23:18:40.760Z,1.83
2023-06-02T23:21:08.026Z,1.30
2023-06-02T23:23:35.751Z,1.27
2023-06-02T23:26:03.179Z,2.00
2023-06-02T23:28:30.254Z,1.03
2023-06-02T23:30:58.537Z,3.00
2023-06-02T23:33:25.477Z,2.83
2023-06-02T23:35:52.444Z,2.03
2023-06-02T23:38:19.394Z,1.20
2023-06-02T23:40:46.365Z,1.60
2023-06-02T23:43:13.364Z,1.30
2023-06-02T23:45:40.526Z,1.20
2023-06-02T23:48:08.820Z,2.63
2023-06-02T23:50:35.779Z,1.30
2023-06-02T23:53:03.401Z,1.73
2023-06-02T23:55:32.055Z,2.23
2023-06-02T23:57:59.038Z,1.37
